Time;durP1;ratioP1;P1;durP2;ratioP2;P2;SDS_P1;SDS_P2;PMS_P1;PMS_P2;Temp;Humidity;BMP_temperature;BMP_pressure;BME280_temperature;BME280_humidity;BME280_pressure;Samples;Min_cycle;Max_cycle;Signal;HPM_P1;HPM_P2
2023/07/22 00:00:37;;;;;;;11.90;7.90;;;15.90;99.90;;;;;;5021369;28;20195;-76
2023/07/22 00:03:20;;;;;;;10.32;7.57;;;15.90;99.90;;;;;;5024235;28;20299;-76
2023/07/22 00:05:47;;;;;;;9.65;7.40;;;16.00;99.90;;;;;;5024732;28;20223;-76
2023/07/22 00:08:14;;;;;;;10.00;8.13;;;15.90;99.90;;;;;;5025884;28;20578;-76
2023/07/22 00:10:43;;;;;;;10.60;7.68;;;15.70;99.90;;;;;;5026466;28;20207;-76
2023/07/22 00:13:11;;;;;;;10.55;8.75;;;15.70;99.90;;;;;;5028510;28;20569;-76
2023/07/22 00:15:38;;;;;;;8.65;7.65;;;15.60;99.90;;;;;;5019391;28;20219;-76
2023/07/22 00:18:05;;;;;;;12.55;8.18;;;15.60;99.90;;;;;;5028964;28;20210;-76
2023/07/22 00:20:34;;;;;;;11.23;8.02;;;15.70;99.90;;;;;;5027501;28;20209;-76
2023/07/22 00:23:02;;;;;;;9.68;8.35;;;15.60;99.90;;;;;;5027691;28;20203;-76
2023/07/22 00:25:29;;;;;;;10.20;7.90;;;15.60;99.90;;;;;;5025636;28;20211;-76
2023/07/22 00:27:57;;;;;;;9.65;7.70;;;15.70;99.90;;;;;;5024435;28;20199;-76
2023/07/22 00:30:25;;;;;;;9.38;7.07;;;15.80;99.90;;;;;;5025649;28;20214;-76
2023/07/22 00:32:52;;;;;;;9.80;7.63;;;15.80;99.90;;;;;;5023870;28;20199;-76
2023/07/22 00:35:20;;;;;;;12.07;8.07;;;15.80;99.90;;;;;;5020088;28;20211;-76
2023/07/22 00:37:48;;;;;;;10.07;7.97;;;15.90;99.90;;;;;;5040051;28;20196;-76
2023/07/22 00:40:16;;;;;;;9.30;7.50;;;15.90;99.90;;;;;;5026795;28;20191;-76
2023/07/22 00:42:44;;;;;;;9.77;8.40;;;16.00;99.90;;;;;;5020613;28;20203;-76
2023/07/22 00:45:12;;;;;;;10.48;7.95;;;15.90;99.90;;;;;;5030216;28;20191;-76
2023/07/22 00:47:40;;;;;;;10.98;7.97;;;15.70;99.90;;;;;;5031150;28;20206;-76
2023/07/22 00:50:08;;;;;;;11.15;8.73;;;15.60;99.90;;;;;;5027856;28;20222;-76
2023/07/22 00:52:36;;;;;;;11.23;8.05;;;15.60;99.90;;;;;;5027458;28;20215;-76
2023/07/22 00:55:06;;;;;;;9.27;7.80;;;15.60;99.90;;;;;;5029922;28;20206;-76
2023/07/22 00:57:33;;;;;;;13.15;8.98;;;15.70;99.90;;;;;;5029103;28;20227;-76
2023/07/22 01:00:01;;;;;;;10.43;8.52;;;15.60;99.90;;;;;;5031063;28;20191;-76
2023/07/22 01:02:28;;;;;;;12.20;8.30;;;15.70;99.90;;;;;;5029525;28;20195;-76
2023/07/22 01:04:56;;;;;;;9.93;8.10;;;15.70;99.90;;;;;;5032860;28;20692;-76
2023/07/22 01:07:23;;;;;;;9.68;7.97;;;15.70;99.90;;;;;;5022406;28;20235;-76
2023/07/22 01:09:58;;;;;;;9.48;7.65;;;15.60;99.90;;;;;;5031250;28;20829;-76
2023/07/22 01:12:27;;;;;;;9.60;8.50;;;15.70;99.90;;;;;;5021227;28;20577;-76
2023/07/22 01:14:54;;;;;;;9.27;8.32;;;15.80;99.90;;;;;;5026768;28;20199;-76
2023/07/22 01:17:22;;;;;;;9.25;7.78;;;15.70;99.90;;;;;;5030520;28;20221;-76
2023/07/22 01:19:50;;;;;;;10.30;8.00;;;15.70;99.90;;;;;;5029586;28;20198;-76
2023/07/22 01:22:19;;;;;;;8.90;7.35;;;15.80;99.90;;;;;;5027240;28;20657;-76
2023/07/22 01:24:47;;;;;;;8.93;7.68;;;15.80;99.90;;;;;;5031995;28;20199;-76
2023/07/22 01:27:16;;;;;;;9.32;8.10;;;15.80;99.90;;;;;;5026602;28;20211;-76
2023/07/22 01:29:44;;;;;;;12.70;9.00;;;15.80;99.90;;;;;;5019717;28;20223;-76
2023/07/22 01:32:11;;;;;;;10.57;8.45;;;15.50;99.90;;;;;;5057740;28;20199;-76
2023/07/22 01:34:39;;;;;;;10.32;8.00;;;15.50;99.90;;;;;;5058925;28;20202;-76
2023/07/22 01:37:07;;;;;;;9.60;7.75;;;15.60;99.90;;;;;;5028489;28;20223;-76
2023/07/22 01:39:34;;;;;;;14.27;8.23;;;15.60;99.90;;;;;;5031371;28;20183;-76
2023/07/22 01:42:03;;;;;;;12.43;8.02;;;15.60;99.90;;;;;;5026448;28;20204;-76
2023/07/22 01:44:31;;;;;;;9.57;8.00;;;15.50;99.90;;;;;;5055769;28;20203;-76
2023/07/22 01:47:44;;;;;;;9.38;7.55;;;15.60;99.90;;;;;;5032999;28;20222;-76
2023/07/22 01:50:11;;;;;;;10.55;7.78;;;15.60;99.90;;;;;;5029336;28;20314;-76
2023/07/22 01:52:39;;;;;;;9.55;7.28;;;15.70;99.90;;;;;;5030131;28;20704;-76
2023/07/22 01:55:10;;;;;;;12.25;8.07;;;15.80;99.90;;;;;;5023066;28;20218;-76
2023/07/22 01:57:40;;;;;;;10.02;7.78;;;15.70;99.90;;;;;;5030861;28;20206;-77
2023/07/22 02:00:10;;;;;;;10.68;7.43;;;15.60;99.90;;;;;;5028549;28;20195;-77
2023/07/22 02:02:41;;;;;;;9.82;8.48;;;15.50;99.90;;;;;;5034904;28;20202;-76
2023/07/22 02:05:09;;;;;;;10.98;8.48;;;15.50;99.90;;;;;;5028625;28;20564;-76
2023/07/22 02:07:37;;;;;;;11.55;8.20;;;15.40;99.90;;;;;;5029181;28;20230;-76
2023/07/22 02:10:05;;;;;;;8.38;7.43;;;15.60;99.90;;;;;;5018185;28;20215;-76
2023/07/22 02:12:33;;;;;;;9.45;7.57;;;15.60;99.90;;;;;;5028437;28;20222;-76
2023/07/22 02:15:03;;;;;;;10.73;7.43;;;15.60;99.90;;;;;;5031144;28;20202;-76
2023/07/22 02:17:31;;;;;;;9.45;7.88;;;15.70;99.90;;;;;;5030609;28;20218;-76
2023/07/22 02:19:59;;;;;;;12.15;7.53;;;15.70;99.90;;;;;;5031335;28;20199;-76
2023/07/22 02:22:26;;;;;;;10.95;7.72;;;15.60;99.90;;;;;;5045035;28;20206;-76
2023/07/22 02:24:54;;;;;;;9.65;7.65;;;15.50;99.90;;;;;;5032308;28;20195;-76
2023/07/22 02:27:21;;;;;;;9.48;7.78;;;15.70;99.90;;;;;;5034007;28;20214;-76
2023/07/22 02:29:49;;;;;;;8.90;7.53;;;15.60;99.90;;;;;;5030966;28;20206;-76
2023/07/22 02:32:18;;;;;;;8.70;6.97;;;15.70;99.90;;;;;;5029738;28;20700;-76
2023/07/22 02:34:45;;;;;;;8.85;7.13;;;15.60;99.90;;;;;;5046873;28;20202;-76
2023/07/22 02:37:12;;;;;;;9.98;7.93;;;15.50;99.90;;;;;;5058260;28;20226;-76
2023/07/22 02:39:40;;;;;;;8.95;6.95;;;15.50;99.90;;;;;;5026723;28;20700;-76
2023/07/22 02:42:08;;;;;;;10.70;7.20;;;15.60;99.90;;;;;;5030307;28;20203;-76
2023/07/22 02:44:35;;;;;;;10.40;8.32;;;15.70;99.90;;;;;;5027227;28;20203;-76
2023/07/22 02:47:03;;;;;;;8.55;7.50;;;15.70;99.90;;;;;;5027753;28;20227;-76
2023/07/22 02:49:31;;;;;;;11.43;8.15;;;15.60;99.90;;;;;;5018626;28;20196;-76
2023/07/22 02:51:59;;;;;;;10.82;7.75;;;15.50;99.90;;;;;;5024696;28;20227;-76
2023/07/22 02:55:04;;;;;;;11.25;8.05;;;15.60;99.90;;;;;;5025806;28;20195;-76
2023/07/22 02:57:31;;;;;;;10.23;7.82;;;15.60;99.90;;;;;;5043294;28;20222;-76
2023/07/22 02:59:59;;;;;;;9.30;7.35;;;15.60;99.90;;;;;;5029362;28;20218;-76
2023/07/22 03:02:26;;;;;;;12.77;7.57;;;15.60;99.90;;;;;;5027794;28;20207;-76
2023/07/22 03:04:55;;;;;;;10.27;8.00;;;15.50;99.90;;;;;;5028609;28;20210;-76
2023/07/22 03:07:23;;;;;;;9.93;7.68;;;15.60;99.90;;;;;;5029176;28;20222;-76
2023/07/22 03:09:50;;;;;;;9.77;7.45;;;15.50;99.90;;;;;;5029679;28;20557;-76
2023/07/22 03:12:18;;;;;;;9.65;7.63;;;15.60;99.90;;;;;;5027577;28;20219;-76
2023/07/22 03:14:46;;;;;;;12.55;8.40;;;15.40;99.90;;;;;;5021716;28;20203;-76
2023/07/22 03:17:16;;;;;;;11.13;8.60;;;15.50;99.90;;;;;;5024232;28;20227;-76
2023/07/22 03:19:44;;;;;;;11.98;7.60;;;15.30;99.90;;;;;;5026852;28;20200;-76
2023/07/22 03:22:15;;;;;;;9.35;7.43;;;15.30;99.90;;;;;;5028798;28;20209;-76
2023/07/22 03:24:43;;;;;;;11.70;7.85;;;15.40;99.90;;;;;;5032260;28;20539;-76
2023/07/22 03:27:11;;;;;;;10.38;8.02;;;15.50;99.90;;;;;;5028022;28;20222;-76
2023/07/22 03:29:39;;;;;;;9.43;7.68;;;15.40;99.90;;;;;;5030423;28;20203;-76
2023/07/22 03:32:08;;;;;;;10.00;7.85;;;15.50;99.90;;;;;;5048161;28;20221;-76
2023/07/22 03:34:36;;;;;;;10.68;7.55;;;15.50;99.90;;;;;;5050883;28;20553;-76
2023/07/22 03:37:03;;;;;;;10.15;7.88;;;15.50;99.90;;;;;;5025029;28;20229;-76
2023/07/22 03:39:32;;;;;;;10.32;8.48;;;15.50;99.90;;;;;;5027702;28;20207;-76
2023/07/22 03:41:59;;;;;;;9.63;7.80;;;15.60;99.90;;;;;;5023456;28;20199;-76
2023/07/22 03:44:28;;;;;;;10.75;7.85;;;15.60;99.90;;;;;;5030689;28;20202;-76
2023/07/22 03:46:56;;;;;;;8.52;7.63;;;15.60;99.90;;;;;;5027341;28;20215;-76
2023/07/22 03:49:23;;;;;;;9.77;6.95;;;15.60;99.90;;;;;;5022998;28;20206;-76
2023/07/22 03:51:50;;;;;;;11.77;7.53;;;15.60;99.90;;;;;;5023279;28;20226;-76
2023/07/22 03:54:18;;;;;;;10.38;7.43;;;15.60;99.90;;;;;;5030305;28;20210;-76
2023/07/22 03:56:47;;;;;;;11.07;8.05;;;15.60;99.90;;;;;;5017442;28;20686;-76
2023/07/22 03:59:14;;;;;;;10.60;7.60;;;15.60;99.90;;;;;;5030329;28;20214;-76
2023/07/22 04:01:43;;;;;;;11.10;7.60;;;15.70;99.90;;;;;;5022651;28;20196;-76
2023/07/22 04:04:10;;;;;;;10.35;7.78;;;15.60;99.90;;;;;;5030528;28;20576;-76
2023/07/22 04:06:38;;;;;;;9.57;7.75;;;15.60;99.90;;;;;;5024306;28;20218;-76
2023/07/22 04:09:05;;;;;;;10.13;7.72;;;15.60;99.90;;;;;;5023298;28;20204;-76
2023/07/22 04:11:32;;;;;;;11.27;8.02;;;15.50;99.90;;;;;;5023009;28;20226;-76
2023/07/22 04:14:01;;;;;;;8.35;6.95;;;15.60;99.90;;;;;;5032275;28;20637;-76
2023/07/22 04:16:29;;;;;;;10.45;6.88;;;15.60;99.90;;;;;;5019330;28;20294;-76
2023/07/22 04:18:56;;;;;;;8.43;7.03;;;15.60;99.90;;;;;;5026803;28;20199;-76
2023/07/22 04:21:24;;;;;;;10.25;7.68;;;15.50;99.90;;;;;;5028312;28;20205;-76
2023/07/22 04:23:52;;;;;;;9.25;6.78;;;15.50;99.90;;;;;;5035436;28;20201;-76
2023/07/22 04:26:20;;;;;;;9.35;6.85;;;15.70;99.90;;;;;;5033415;28;20223;-76
2023/07/22 04:28:48;;;;;;;10.07;7.00;;;15.60;99.90;;;;;;5032557;28;20199;-76
2023/07/22 04:31:17;;;;;;;8.90;7.07;;;15.60;99.90;;;;;;5026477;28;20211;-76
2023/07/22 04:33:45;;;;;;;7.70;6.75;;;15.60;99.90;;;;;;5052006;28;20199;-76
2023/07/22 04:36:12;;;;;;;10.02;7.00;;;15.60;99.90;;;;;;5028577;28;20234;-76
2023/07/22 04:38:40;;;;;;;7.50;6.03;;;15.70;99.90;;;;;;5033799;28;20210;-76
2023/07/22 04:41:07;;;;;;;11.45;6.85;;;15.70;99.90;;;;;;5032787;28;20211;-76
2023/07/22 04:43:35;;;;;;;8.75;6.95;;;15.60;99.90;;;;;;5034474;28;20557;-76
2023/07/22 04:46:02;;;;;;;11.20;6.88;;;15.70;99.90;;;;;;5033694;28;20230;-76
2023/07/22 04:48:31;;;;;;;8.63;6.70;;;15.70;99.90;;;;;;5032638;28;20191;-77
2023/07/22 04:50:59;;;;;;;7.65;6.22;;;15.80;99.90;;;;;;5036499;28;20215;-77
2023/07/22 04:53:26;;;;;;;8.43;6.63;;;15.80;99.90;;;;;;5040422;28;20250;-77
2023/07/22 04:55:55;;;;;;;6.80;6.07;;;15.80;99.90;;;;;;5047237;28;20224;-76
2023/07/22 04:58:22;;;;;;;10.02;6.95;;;15.80;99.90;;;;;;5027931;28;20202;-77
2023/07/22 05:00:50;;;;;;;8.70;6.45;;;15.90;99.90;;;;;;5032664;28;20198;-76
2023/07/22 05:03:19;;;;;;;9.30;7.90;;;15.80;99.90;;;;;;5034301;28;20563;-76
2023/07/22 05:05:47;;;;;;;9.10;7.07;;;15.80;99.90;;;;;;5033080;28;20221;-76
2023/07/22 05:08:15;;;;;;;10.93;7.40;;;15.90;99.90;;;;;;5033065;28;20195;-76
2023/07/22 05:10:50;;;;;;;8.15;6.25;;;15.90;99.90;;;;;;5032020;28;20525;-76
2023/07/22 05:13:18;;;;;;;8.95;7.25;;;15.90;99.90;;;;;;5034923;28;20218;-76
2023/07/22 05:15:45;;;;;;;10.80;7.57;;;16.00;99.90;;;;;;5031480;28;20223;-76
2023/07/22 05:18:12;;;;;;;11.43;6.93;;;16.00;99.90;;;;;;5023799;28;20203;-76
2023/07/22 05:20:40;;;;;;;9.90;6.78;;;16.00;99.90;;;;;;5032325;28;20210;-76
2023/07/22 05:23:09;;;;;;;8.65;6.80;;;16.00;99.90;;;;;;5048266;28;20199;-76
2023/07/22 05:25:36;;;;;;;9.75;7.22;;;16.00;99.90;;;;;;5033349;28;20207;-76
2023/07/22 05:28:04;;;;;;;11.63;7.03;;;16.00;99.90;;;;;;5032537;28;20203;-76
2023/07/22 05:30:31;;;;;;;8.25;6.72;;;16.00;99.90;;;;;;5032644;28;20218;-76
2023/07/22 05:32:59;;;;;;;10.68;7.57;;;16.00;99.90;;;;;;5033261;28;20207;-76
2023/07/22 05:35:26;;;;;;;7.97;6.88;;;16.00;99.90;;;;;;5031723;28;20211;-76
2023/07/22 05:37:54;;;;;;;8.00;6.18;;;16.10;99.90;;;;;;5027847;28;20558;-76
2023/07/22 05:40:23;;;;;;;9.00;6.22;;;16.00;99.90;;;;;;5050565;28;20207;-76
2023/07/22 05:42:50;;;;;;;7.95;6.75;;;16.20;99.90;;;;;;5027940;28;20196;-76
2023/07/22 05:45:24;;;;;;;8.82;5.97;;;16.20;99.90;;;;;;5023559;28;20202;-80
2023/07/22 05:48:03;;;;;;;8.98;6.03;;;16.20;99.90;;;;;;5042228;28;20190;-77
2023/07/22 05:50:30;;;;;;;9.90;7.10;;;16.20;99.90;;;;;;5030339;28;20206;-78
2023/07/22 05:52:58;;;;;;;8.98;6.15;;;16.10;99.90;;;;;;5025306;28;20215;-77
2023/07/22 05:59:10;;;;;;;10.43;7.03;;;16.00;99.90;;;;;;4925391;28;20210;-77
2023/07/22 06:01:39;;;;;;;9.20;7.28;;;16.00;99.90;;;;;;5031766;28;20560;-76
2023/07/22 06:04:17;;;;;;;7.60;6.00;;;16.10;99.90;;;;;;5024273;28;20218;-77
2023/07/22 06:07:09;;;;;;;8.55;6.47;;;16.20;99.90;;;;;;5028107;28;20219;-77
2023/07/22 06:10:05;;;;;;;9.35;6.35;;;16.30;99.90;;;;;;5022875;28;20203;-77
2023/07/22 06:12:35;;;;;;;8.88;6.60;;;16.40;99.90;;;;;;5032405;28;20207;-77
2023/07/22 06:15:05;;;;;;;8.32;6.63;;;16.40;99.90;;;;;;5028643;28;20195;-77
2023/07/22 06:18:03;;;;;;;8.77;6.43;;;16.40;99.90;;;;;;5026217;28;20223;-77
2023/07/22 06:20:36;;;;;;;8.40;6.40;;;16.60;99.90;;;;;;5031603;28;20218;-77
2023/07/22 06:23:03;;;;;;;9.38;6.90;;;16.50;99.90;;;;;;5033348;28;20199;-77
2023/07/22 06:25:34;;;;;;;11.10;6.70;;;16.50;99.90;;;;;;5032665;28;20206;-77
2023/07/22 06:28:02;;;;;;;8.15;5.97;;;16.60;99.90;;;;;;5031531;28;20211;-77
2023/07/22 06:30:31;;;;;;;8.57;6.95;;;16.70;99.90;;;;;;5029864;28;20195;-77
2023/07/22 06:32:58;;;;;;;7.88;6.18;;;16.60;99.90;;;;;;5025795;28;20237;-78
2023/07/22 06:35:25;;;;;;;10.70;6.82;;;16.60;99.90;;;;;;5051147;28;20196;-78
2023/07/22 06:37:56;;;;;;;10.02;7.10;;;16.70;99.90;;;;;;5030094;28;20218;-79
2023/07/22 06:40:27;;;;;;;10.32;7.40;;;16.80;99.90;;;;;;5029773;28;20210;-79
2023/07/22 06:42:54;;;;;;;9.52;7.13;;;16.80;99.90;;;;;;5039881;28;20682;-77
2023/07/22 06:45:22;;;;;;;10.70;7.75;;;16.90;99.90;;;;;;5025047;28;20218;-77
2023/07/22 06:47:50;;;;;;;10.48;8.07;;;16.80;99.90;;;;;;5030903;28;20202;-77
2023/07/22 06:50:18;;;;;;;10.57;7.78;;;16.90;99.90;;;;;;5031156;28;20202;-77
2023/07/22 06:52:45;;;;;;;12.10;7.90;;;16.80;99.90;;;;;;5021703;28;20226;-77
2023/07/22 06:55:13;;;;;;;11.73;7.68;;;16.90;99.90;;;;;;5028363;28;20213;-77
2023/07/22 06:57:40;;;;;;;12.82;7.97;;;16.90;99.90;;;;;;5028081;28;20218;-76
2023/07/22 07:00:09;;;;;;;12.02;8.48;;;17.10;99.90;;;;;;5025634;28;20210;-77
2023/07/22 07:02:37;;;;;;;12.55;8.10;;;17.00;99.90;;;;;;5032695;28;20199;-77
2023/07/22 07:05:07;;;;;;;10.13;7.22;;;17.20;99.90;;;;;;5026126;28;20200;-76
2023/07/22 07:07:34;;;;;;;10.20;7.70;;;17.40;99.90;;;;;;5048951;28;20241;-77
2023/07/22 07:10:02;;;;;;;12.27;7.90;;;17.40;99.90;;;;;;5028141;28;20214;-77
2023/07/22 07:12:41;;;;;;;10.20;8.48;;;17.30;99.90;;;;;;5028167;28;20223;-77
2023/07/22 07:15:09;;;;;;;10.65;8.18;;;17.30;99.90;;;;;;5023845;28;20194;-76
2023/07/22 07:17:37;;;;;;;10.82;8.60;;;17.30;99.90;;;;;;5024002;28;20278;-77
2023/07/22 07:20:07;;;;;;;11.27;7.47;;;17.30;99.90;;;;;;5026878;28;20203;-77
2023/07/22 07:22:34;;;;;;;11.40;8.25;;;17.50;99.90;;;;;;5042476;28;20202;-77
2023/07/22 07:25:02;;;;;;;10.07;7.80;;;17.60;99.90;;;;;;5025187;28;20215;-77
2023/07/22 07:27:41;;;;;;;10.05;7.22;;;17.60;99.90;;;;;;5051728;28;20227;-77
2023/07/22 07:30:09;;;;;;;10.32;7.43;;;17.80;99.90;;;;;;5024509;28;20195;-76
2023/07/22 07:32:37;;;;;;;12.32;8.10;;;17.60;99.90;;;;;;5026641;28;20213;-77
2023/07/22 07:35:10;;;;;;;11.00;7.90;;;17.70;99.90;;;;;;5036488;28;20203;-79
2023/07/22 07:37:37;;;;;;;11.38;7.95;;;17.70;99.90;;;;;;5028384;28;20211;-78
2023/07/22 07:40:27;;;;;;;9.63;6.90;;;17.70;99.90;;;;;;5026931;28;20223;-81
2023/07/22 07:43:26;;;;;;;10.43;7.20;;;18.00;99.90;;;;;;5032854;28;20195;-81
2023/07/22 07:46:17;;;;;;;11.20;7.63;;;18.20;99.90;;;;;;5031148;28;20227;-81
2023/07/22 07:48:56;;;;;;;10.45;7.43;;;18.10;99.90;;;;;;5030635;28;20190;-81
2023/07/22 07:51:26;;;;;;;9.82;7.50;;;18.00;99.90;;;;;;5032172;28;20653;-81
2023/07/22 07:53:57;;;;;;;8.45;6.95;;;18.30;99.90;;;;;;5028510;28;20218;-81
2023/07/22 07:56:24;;;;;;;9.98;7.30;;;18.30;99.90;;;;;;5025013;28;20227;-81
2023/07/22 07:58:53;;;;;;;9.82;7.35;;;18.40;99.90;;;;;;5028559;28;20571;-81
2023/07/22 08:01:24;;;;;;;9.68;7.38;;;18.00;99.90;;;;;;5028464;28;20190;-82
2023/07/22 08:03:54;;;;;;;9.88;7.47;;;18.10;99.90;;;;;;5027661;28;20207;-83
2023/07/22 08:06:21;;;;;;;9.60;8.20;;;18.40;99.90;;;;;;5030105;28;20230;-82
2023/07/22 08:08:51;;;;;;;9.70;7.47;;;18.30;99.90;;;;;;5028505;28;20204;-83
2023/07/22 08:11:19;;;;;;;10.27;7.40;;;18.10;99.90;;;;;;5030816;28;20202;-82
2023/07/22 08:13:51;;;;;;;10.98;8.75;;;18.20;99.90;;;;;;5052221;28;20550;-83
2023/07/22 08:16:18;;;;;;;10.57;7.97;;;18.20;99.90;;;;;;5025498;28;20234;-82
2023/07/22 08:18:47;;;;;;;10.00;7.45;;;18.20;99.90;;;;;;5028885;28;20532;-82
2023/07/22 08:21:14;;;;;;;13.02;9.05;;;18.20;99.90;;;;;;5026474;28;20206;-83
2023/07/22 08:23:45;;;;;;;9.80;8.13;;;18.30;99.90;;;;;;5027973;28;20203;-82
2023/07/22 08:26:17;;;;;;;11.40;8.20;;;18.30;99.90;;;;;;5030905;28;20229;-83
2023/07/22 08:28:45;;;;;;;10.55;7.35;;;18.50;99.90;;;;;;5029237;28;20535;-83
2023/07/22 08:31:12;;;;;;;10.45;7.50;;;18.50;99.90;;;;;;5027789;28;20207;-83
2023/07/22 08:33:40;;;;;;;10.65;7.75;;;18.70;99.90;;;;;;5026756;28;20215;-83
2023/07/22 08:36:07;;;;;;;11.35;8.32;;;18.70;99.90;;;;;;5044304;28;20223;-83
2023/07/22 08:38:38;;;;;;;12.38;8.43;;;18.90;99.90;;;;;;5029805;28;20202;-83
2023/07/22 08:41:06;;;;;;;11.48;8.35;;;18.90;99.90;;;;;;5028850;28;20222;-83
2023/07/22 08:43:39;;;;;;;10.05;7.53;;;18.90;99.90;;;;;;5024350;28;20199;-83
2023/07/22 08:46:21;;;;;;;11.25;7.95;;;19.10;99.90;;;;;;5025684;28;20215;-82
2023/07/22 08:48:54;;;;;;;9.40;7.45;;;19.10;99.90;;;;;;5029033;28;20222;-83
2023/07/22 08:51:24;;;;;;;9.85;7.75;;;19.00;99.90;;;;;;5028186;28;20230;-83
2023/07/22 08:53:52;;;;;;;9.75;7.47;;;19.10;99.90;;;;;;5024413;28;20215;-83
2023/07/22 08:56:29;;;;;;;9.18;7.60;;;19.10;99.90;;;;;;5031392;28;20228;-83
2023/07/22 08:58:58;;;;;;;10.63;8.10;;;19.10;99.90;;;;;;5031890;28;20213;-83
2023/07/22 09:01:35;;;;;;;8.52;6.88;;;18.90;99.90;;;;;;5023332;28;20549;-83
2023/07/22 09:04:03;;;;;;;8.45;6.95;;;18.90;99.90;;;;;;5021652;28;20700;-82
2023/07/22 09:06:31;;;;;;;13.18;7.93;;;18.90;99.90;;;;;;5033405;28;20218;-84
2023/07/22 09:09:00;;;;;;;11.00;7.63;;;19.10;99.90;;;;;;5032701;28;20226;-83
2023/07/22 09:11:28;;;;;;;12.85;8.07;;;19.10;99.90;;;;;;5027680;28;20245;-82
2023/07/22 09:13:58;;;;;;;11.13;7.47;;;18.90;99.90;;;;;;5031185;28;20219;-83
2023/07/22 09:16:27;;;;;;;8.45;6.65;;;19.00;99.90;;;;;;5059158;28;20222;-83
2023/07/22 09:19:00;;;;;;;9.13;6.75;;;19.00;99.90;;;;;;5026340;28;20231;-83
2023/07/22 09:21:28;;;;;;;10.57;6.72;;;19.20;99.90;;;;;;5031080;28;20663;-83
2023/07/22 09:23:56;;;;;;;9.13;6.68;;;19.30;99.90;;;;;;5030501;28;20715;-84
2023/07/22 09:26:23;;;;;;;10.02;6.30;;;19.30;99.90;;;;;;5044230;28;20226;-83
2023/07/22 09:29:28;;;;;;;8.77;6.57;;;19.40;99.90;;;;;;5028398;28;20211;-83
2023/07/22 09:31:57;;;;;;;10.40;5.57;;;19.30;99.90;;;;;;5025728;28;20214;-83
2023/07/22 09:34:25;;;;;;;8.15;6.25;;;19.20;99.90;;;;;;5033564;28;20214;-83
2023/07/22 09:36:57;;;;;;;6.50;5.63;;;19.20;99.90;;;;;;5058353;28;20222;-83
2023/07/22 09:42:32;;;;;;;7.45;5.57;;;19.40;99.90;;;;;;5025298;28;20203;-83
2023/07/22 09:45:05;;;;;;;7.50;5.70;;;19.50;99.90;;;;;;5026503;28;20202;-83
2023/07/22 09:47:50;;;;;;;8.35;5.95;;;19.50;99.90;;;;;;5043993;28;20223;-83
2023/07/22 09:50:27;;;;;;;7.45;5.38;;;19.70;99.20;;;;;;5032119;28;20654;-83
2023/07/22 09:53:08;;;;;;;6.47;5.20;;;19.70;99.20;;;;;;5031465;28;20668;-83
2023/07/22 09:55:43;;;;;;;10.32;5.78;;;19.60;99.80;;;;;;5034324;28;20730;-83
2023/07/22 09:58:23;;;;;;;10.68;5.97;;;19.40;99.00;;;;;;5031559;28;20202;-84
2023/07/22 10:00:57;;;;;;;6.68;5.15;;;19.60;99.90;;;;;;5045872;28;20597;-83
2023/07/22 10:03:40;;;;;;;6.88;5.68;;;19.60;98.90;;;;;;5030106;28;20206;-82
2023/07/22 10:06:13;;;;;;;7.63;5.82;;;19.60;98.90;;;;;;5032433;28;20221;-81
2023/07/22 10:08:45;;;;;;;8.65;5.18;;;19.70;98.80;;;;;;5031030;28;20195;-82
2023/07/22 10:11:26;;;;;;;8.40;5.32;;;19.80;99.10;;;;;;5033818;28;20210;-82
2023/07/22 10:14:12;;;;;;;8.35;5.57;;;19.80;98.30;;;;;;5027978;28;20210;-82
2023/07/22 10:16:46;;;;;;;6.38;5.32;;;19.80;99.00;;;;;;5031942;28;20221;-82
2023/07/22 10:19:25;;;;;;;7.25;5.32;;;19.90;98.90;;;;;;5037599;28;20195;-84
2023/07/22 10:22:07;;;;;;;6.43;4.93;;;19.90;98.50;;;;;;5037799;28;20210;-82
2023/07/22 10:24:47;;;;;;;6.10;5.35;;;20.00;97.40;;;;;;5037189;28;20198;-82
2023/07/22 10:27:21;;;;;;;5.60;4.90;;;19.80;97.40;;;;;;5036354;28;20215;-82
2023/07/22 10:29:58;;;;;;;6.28;5.07;;;19.90;98.10;;;;;;5039840;28;20190;-82
2023/07/22 10:32:49;;;;;;;6.93;4.55;;;19.90;98.10;;;;;;5032762;28;20198;-84
2023/07/22 10:36:03;;;;;;;5.63;4.90;;;19.90;98.00;;;;;;5064201;28;20211;-82
2023/07/22 10:38:41;;;;;;;5.55;4.82;;;20.00;97.50;;;;;;5033749;28;20199;-82
2023/07/22 10:41:22;;;;;;;6.50;4.35;;;20.00;97.90;;;;;;5030572;28;20226;-82
2023/07/22 10:44:00;;;;;;;6.75;4.65;;;20.20;97.60;;;;;;5031010;28;20206;-83
2023/07/22 10:46:39;;;;;;;5.93;4.13;;;20.20;96.80;;;;;;5041081;28;20241;-82
2023/07/22 10:49:13;;;;;;;5.50;4.63;;;20.10;97.20;;;;;;5033950;28;20186;-82
2023/07/22 10:51:48;;;;;;;7.28;4.30;;;20.40;97.10;;;;;;5024023;28;20696;-81
2023/07/22 10:54:31;;;;;;;5.78;4.85;;;20.80;96.80;;;;;;5026910;28;20203;-81
2023/07/22 10:57:03;;;;;;;5.72;5.00;;;20.80;95.90;;;;;;5029167;28;20227;-81
2023/07/22 10:59:35;;;;;;;5.35;4.57;;;20.70;96.30;;;;;;5029887;28;20214;-81
2023/07/22 11:02:08;;;;;;;5.68;4.40;;;20.70;96.50;;;;;;5028341;28;20214;-81
2023/07/22 11:04:35;;;;;;;4.70;4.30;;;20.80;95.90;;;;;;5030296;28;20195;-81
2023/07/22 11:07:07;;;;;;;7.60;4.95;;;20.80;95.10;;;;;;5030321;28;20592;-81
2023/07/22 11:09:41;;;;;;;5.80;4.38;;;20.80;96.10;;;;;;5050510;28;20208;-81
2023/07/22 11:12:10;;;;;;;4.72;3.63;;;21.00;95.20;;;;;;5031541;28;20207;-81
2023/07/22 11:14:40;;;;;;;4.47;3.72;;;20.90;94.30;;;;;;5027048;28;20220;-81
2023/07/22 11:17:09;;;;;;;5.72;3.47;;;20.90;94.50;;;;;;5051813;28;20233;-81
2023/07/22 11:19:36;;;;;;;6.47;4.10;;;21.10;94.80;;;;;;5018363;28;20207;-81
2023/07/22 11:22:06;;;;;;;5.82;4.10;;;21.10;94.70;;;;;;5030574;28;20202;-81
2023/07/22 11:24:35;;;;;;;4.82;3.90;;;21.40;94.70;;;;;;5030159;28;20707;-81
2023/07/22 11:27:05;;;;;;;6.78;4.35;;;21.20;94.10;;;;;;5030479;28;20697;-81
2023/07/22 11:29:33;;;;;;;4.55;3.33;;;21.40;93.30;;;;;;5029949;28;20206;-81
2023/07/22 11:32:00;;;;;;;4.72;3.28;;;21.40;93.30;;;;;;5029739;28;20218;-81
2023/07/22 11:34:28;;;;;;;4.72;3.63;;;21.50;93.40;;;;;;5030106;28;20203;-81
2023/07/22 11:36:57;;;;;;;4.80;3.17;;;21.60;93.60;;;;;;5029265;28;20242;-81
2023/07/22 11:39:31;;;;;;;4.68;3.20;;;21.60;92.20;;;;;;5030815;28;20191;-81
2023/07/22 11:42:01;;;;;;;4.10;3.28;;;21.80;93.70;;;;;;5030085;28;20198;-81
2023/07/22 11:44:29;;;;;;;2.70;2.50;;;21.50;92.20;;;;;;5030555;28;20286;-82
2023/07/22 11:46:58;;;;;;;3.35;3.05;;;21.30;93.40;;;;;;5031517;28;20226;-82
2023/07/22 11:49:28;;;;;;;3.65;2.90;;;21.20;92.50;;;;;;5031308;28;20199;-81
2023/07/22 11:51:57;;;;;;;3.28;2.97;;;21.50;92.90;;;;;;5034144;28;20199;-81
2023/07/22 11:54:26;;;;;;;3.65;2.95;;;21.70;92.40;;;;;;5040068;28;20213;-82
2023/07/22 11:56:54;;;;;;;3.35;2.95;;;21.60;92.80;;;;;;5033120;28;20226;-81
2023/07/22 11:59:38;;;;;;;3.33;2.90;;;21.50;92.20;;;;;;5058935;28;20210;-81
2023/07/22 12:02:06;;;;;;;3.90;2.75;;;21.40;92.80;;;;;;5035191;28;20210;-81
2023/07/22 12:04:34;;;;;;;4.57;2.72;;;21.40;92.30;;;;;;5028721;28;20210;-81
2023/07/22 12:07:04;;;;;;;4.50;2.85;;;21.40;93.10;;;;;;5026055;28;20222;-81
2023/07/22 12:09:33;;;;;;;4.25;2.55;;;21.50;91.70;;;;;;5026271;28;20207;-81
2023/07/22 12:12:01;;;;;;;2.85;2.33;;;21.80;91.60;;;;;;5020594;28;20207;-81
2023/07/22 12:14:35;;;;;;;2.90;2.50;;;21.80;91.20;;;;;;5027221;28;20222;-81
2023/07/22 12:17:41;;;;;;;4.32;2.60;;;21.80;91.10;;;;;;5033842;28;20214;-82
2023/07/22 12:20:10;;;;;;;3.38;2.63;;;21.60;91.10;;;;;;5020003;28;20203;-76
2023/07/22 12:22:38;;;;;;;4.03;2.53;;;21.40;91.40;;;;;;5025059;28;20207;-76
2023/07/22 12:25:08;;;;;;;6.00;2.60;;;21.60;91.70;;;;;;5022608;28;20202;-76
2023/07/22 12:27:35;;;;;;;2.92;2.63;;;21.60;91.40;;;;;;5025555;28;20216;-76
2023/07/22 12:30:03;;;;;;;4.10;2.25;;;21.70;91.60;;;;;;5026563;28;20207;-77
2023/07/22 12:32:31;;;;;;;3.22;2.58;;;21.80;91.90;;;;;;5023451;28;20203;-77
2023/07/22 12:34:58;;;;;;;4.03;2.67;;;21.70;91.20;;;;;;5028688;28;20203;-77
2023/07/22 12:37:26;;;;;;;4.25;2.20;;;21.80;91.10;;;;;;5023708;28;20223;-76
2023/07/22 12:39:54;;;;;;;3.72;2.58;;;21.80;91.30;;;;;;5062228;28;20203;-77
2023/07/22 12:42:22;;;;;;;3.58;2.60;;;21.70;91.00;;;;;;5033609;28;20199;-77
2023/07/22 12:44:53;;;;;;;3.08;2.42;;;21.60;91.60;;;;;;5027348;28;20208;-76
2023/07/22 12:47:20;;;;;;;3.92;2.40;;;21.70;92.00;;;;;;5032938;28;20225;-77
2023/07/22 12:49:47;;;;;;;2.85;2.50;;;22.10;91.20;;;;;;5032473;28;20214;-76
2023/07/22 12:52:15;;;;;;;2.58;2.15;;;22.20;91.00;;;;;;5031243;28;20218;-76
2023/07/22 12:54:42;;;;;;;4.82;2.30;;;22.20;91.20;;;;;;5031290;28;20205;-77
2023/07/22 12:57:10;;;;;;;2.88;2.30;;;22.20;90.90;;;;;;5032606;28;20231;-77
2023/07/22 12:59:40;;;;;;;3.22;2.25;;;22.20;90.10;;;;;;5017951;28;20206;-76
2023/07/22 13:02:08;;;;;;;2.80;2.60;;;22.20;90.50;;;;;;5031429;28;20195;-76
2023/07/22 13:04:35;;;;;;;3.10;2.30;;;22.00;90.10;;;;;;5025851;28;20202;-76
2023/07/22 13:07:03;;;;;;;3.08;2.20;;;22.20;90.40;;;;;;5024876;28;20230;-77